チューリッヒ の空港の天気 - METARとTAF

チューリヒ国際空港 ( LSZH / ZRH ) - スイス チューリッヒ
飛行場実況気象(Metar)
観測時間09/25 05:50 CEST (09/25 03:50 UTC)
風向・風速西北西 2m/s
視程10km以上
天気現象
なし
気温3℃
湿度87%
気圧1035hPa
METARLSZH 250350Z 30004KT CAVOK 03/01 Q1035 NOSIG
過去の天気等 Google飛行場航空写真 Wunderground天気予報

過去48時間のMETAR

飛行場予報(TAF)
発表時間: 9/25 04:25 CEST (9/25 02:25 UTC)
予報対象時間: 25日5時 CEST ~ 26日11時 CEST
風向・風速北北西 3m/s
視程10km以上
なし
25日9時 CEST ~ 25日11時 CEST に徐々に
風向・風速東北東 6m/s
25日12時 CEST ~ 25日18時 CEST に一時的に
風向・風速東北東 8m/s 瞬間風速 14m/s
25日21時 CEST ~ 25日23時 CEST に徐々に
風向・風速不定 2m/s
26日5時 CEST から 確率 40% で
視程4000m
天気現象地霧
TAF LSZH 250225Z 2503/2609 33005KT CAVOK TX16/2514Z TN03/2505Z TN02/2605Z
BECMG 2507/2509 06011KT
TEMPO 2510/2516 06016G28KT
BECMG 2519/2521 VRB03KT
PROB40 2603/2606 4000 MIFG